createdAt,value
2017-03-14T17:14:55.918Z,16.90
2017-03-14T17:15:55.843Z,14.82
2017-03-14T17:16:55.827Z,17.92
2017-03-14T17:17:55.927Z,17.45
2017-03-14T17:18:56.688Z,16.88
2017-03-14T17:19:56.629Z,18.97
2017-03-14T17:20:56.558Z,16.60
2017-03-14T17:21:56.512Z,15.60
2017-03-14T17:22:56.436Z,14.63
2017-03-14T17:23:56.393Z,19.72
2017-03-14T17:24:56.324Z,14.70
2017-03-14T17:25:56.283Z,20.02
2017-03-14T17:26:56.269Z,18.43
2017-03-14T17:27:56.259Z,18.20
2017-03-14T17:28:56.251Z,21.78
2017-03-14T17:29:56.224Z,15.25
2017-03-14T17:30:56.189Z,19.75
2017-03-14T17:31:56.254Z,22.08
2017-03-14T17:32:57.157Z,22.02
2017-03-14T17:33:57.136Z,17.15
2017-03-14T17:34:57.086Z,19.17
2017-03-14T17:35:57.049Z,19.48
2017-03-14T17:36:57.012Z,15.37
2017-03-14T17:37:57.756Z,19.92
2017-03-14T17:38:57.717Z,19.55
2017-03-14T17:39:58.434Z,18.68
2017-03-14T17:40:58.386Z,20.28
2017-03-14T17:41:58.400Z,17.80
2017-03-14T17:42:58.346Z,19.13
2017-03-14T17:43:58.342Z,16.63
2017-03-14T17:44:58.360Z,20.22
2017-03-14T17:45:58.406Z,18.50
2017-03-14T17:46:58.368Z,19.28
2017-03-14T17:47:58.331Z,14.88
2017-03-14T17:48:58.329Z,16.45
2017-03-14T17:49:58.321Z,21.12
2017-03-14T17:50:58.370Z,20.95
2017-03-14T17:51:58.366Z,15.97
2017-03-14T17:52:58.378Z,19.67
2017-03-14T17:53:58.351Z,23.08
2017-03-14T17:54:58.335Z,18.73
2017-03-14T17:55:58.334Z,16.92
2017-03-14T17:56:58.378Z,18.45
2017-03-14T17:57:58.330Z,19.22
2017-03-14T17:58:58.261Z,20.28
2017-03-14T17:59:58.227Z,20.67
2017-03-14T18:00:58.212Z,17.37
2017-03-14T18:01:58.347Z,17.47
2017-03-14T18:02:59.123Z,21.12
2017-03-14T18:03:59.138Z,20.78
2017-03-14T18:04:59.586Z,23.30
2017-03-14T18:05:59.560Z,18.45
2017-03-14T18:06:59.607Z,23.40
2017-03-14T18:07:59.646Z,18.32
2017-03-14T18:08:59.815Z,19.03
2017-03-14T18:09:59.770Z,17.60
2017-03-14T18:10:59.723Z,15.30
2017-03-14T18:11:59.722Z,15.22
2017-03-14T18:12:59.752Z,18.02
2017-03-14T18:13:59.723Z,19.13
2017-03-14T18:14:59.687Z,19.78
2017-03-14T18:15:59.646Z,16.10
2017-03-14T18:16:59.618Z,18.60
2017-03-14T18:17:59.616Z,24.62
2017-03-14T18:18:59.546Z,15.97
2017-03-14T18:19:59.553Z,20.63
2017-03-14T18:20:59.559Z,17.18
2017-03-14T18:21:59.529Z,21.68
2017-03-14T18:22:59.514Z,17.62
2017-03-14T18:23:59.435Z,19.72
2017-03-14T18:25:06.140Z,20.62
2017-03-14T18:26:06.934Z,18.60
2017-03-14T18:27:06.887Z,19.83
2017-03-14T18:28:06.933Z,17.57
2017-03-14T18:29:06.918Z,26.55
2017-03-14T18:30:06.892Z,18.05
2017-03-14T18:31:07.463Z,16.18
2017-03-14T18:32:07.422Z,24.17
2017-03-14T18:33:07.399Z,18.47
2017-03-14T18:34:07.342Z,20.83
2017-03-14T18:35:07.336Z,18.77
2017-03-14T18:36:07.274Z,18.88
2017-03-14T18:37:08.264Z,25.15
2017-03-14T18:38:08.244Z,21.27
2017-03-14T18:39:08.674Z,26.30
2017-03-14T18:40:09.415Z,20.55
2017-03-14T18:41:10.142Z,23.23
2017-03-14T18:42:10.166Z,17.08
2017-03-14T18:43:10.127Z,16.87
2017-03-14T18:44:10.126Z,24.58
2017-03-14T18:45:10.131Z,27.73
2017-03-14T18:46:10.092Z,27.67
2017-03-14T18:47:10.351Z,25.38
2017-03-14T18:48:10.370Z,32.12
2017-03-14T18:49:11.051Z,36.10
2017-03-14T18:50:11.149Z,34.77
2017-03-14T18:51:11.186Z,33.08
2017-03-14T18:52:11.144Z,36.57
2017-03-14T18:53:11.156Z,40.38
2017-03-14T18:54:11.123Z,41.92
2017-03-14T18:55:11.111Z,41.60
2017-03-14T18:56:11.071Z,43.43
2017-03-14T18:57:11.183Z,46.32
2017-03-14T18:58:11.275Z,53.53
2017-03-14T18:59:11.894Z,56.45
2017-03-14T19:00:12.032Z,64.57
2017-03-14T19:01:12.071Z,66.37
2017-03-14T19:02:12.198Z,71.15
2017-03-14T19:03:12.236Z,82.22
2017-03-14T19:04:12.760Z,87.53
2017-03-14T19:05:12.855Z,106.42
2017-03-14T19:06:12.972Z,94.67
2017-03-14T19:07:20.181Z,97.92
2017-03-14T19:08:26.935Z,90.58
2017-03-14T19:09:29.219Z,98.88
2017-03-14T19:10:32.402Z,92.08
2017-03-14T19:11:33.896Z,85.08
2017-03-14T19:12:35.714Z,84.65
2017-03-14T19:13:36.772Z,80.27
2017-03-14T19:14:42.370Z,73.07
2017-03-14T19:15:43.608Z,75.03
2017-03-14T19:16:44.423Z,75.50
2017-03-14T19:17:46.505Z,82.62
2017-03-14T19:18:48.516Z,83.72
2017-03-14T19:19:53.414Z,74.02
2017-03-14T19:20:59.509Z,71.13
2017-03-14T19:22:02.563Z,70.18
2017-03-14T19:23:02.549Z,69.80
2017-03-14T19:24:02.562Z,69.62
2017-03-14T19:25:02.587Z,73.55
2017-03-14T19:26:02.533Z,69.40
2017-03-14T19:27:03.038Z,79.08
2017-03-14T19:28:03.181Z,72.17
2017-03-14T19:29:03.166Z,71.68
2017-03-14T19:30:03.142Z,78.65
2017-03-14T19:31:03.201Z,73.12
2017-03-14T19:32:03.232Z,80.03
2017-03-14T19:33:03.181Z,68.70
2017-03-14T19:34:03.180Z,70.18
2017-03-14T19:35:03.212Z,72.17
2017-03-14T19:36:03.923Z,68.57
2017-03-14T19:37:03.912Z,65.92
2017-03-14T19:38:03.895Z,74.85
2017-03-14T19:39:04.403Z,63.92
2017-03-14T19:40:04.387Z,64.45
2017-03-14T19:41:04.358Z,66.85
2017-03-14T19:42:04.371Z,63.55
2017-03-14T19:43:04.392Z,57.05
2017-03-14T19:44:05.163Z,61.17
2017-03-14T19:45:05.165Z,60.48
2017-03-14T19:46:05.170Z,63.92
2017-03-14T19:47:05.253Z,65.25
2017-03-14T19:48:05.307Z,61.17
2017-03-14T19:49:05.311Z,58.08
2017-03-14T19:50:05.339Z,67.13
2017-03-14T19:51:05.313Z,58.60
2017-03-14T19:52:05.311Z,63.02
2017-03-14T19:53:05.295Z,53.63
2017-03-14T19:54:05.758Z,57.70
2017-03-14T19:55:05.731Z,53.68
2017-03-14T19:56:05.705Z,53.63
2017-03-14T19:57:05.671Z,49.03
2017-03-14T19:58:05.655Z,54.95
2017-03-14T19:59:05.663Z,54.90
2017-03-14T20:00:05.650Z,60.40
2017-03-14T20:01:05.611Z,56.90
2017-03-14T20:02:05.623Z,57.50
2017-03-14T20:03:05.586Z,52.12
2017-03-14T20:04:05.570Z,52.63
2017-03-14T20:05:05.633Z,51.53
2017-03-14T20:06:05.652Z,49.85
2017-03-14T20:07:05.623Z,48.32
2017-03-14T20:08:05.614Z,54.97
2017-03-14T20:09:06.046Z,50.35
2017-03-14T20:10:06.038Z,46.72
2017-03-14T20:11:05.994Z,48.88
2017-03-14T20:12:05.982Z,47.88
2017-03-14T20:13:05.939Z,48.02
2017-03-14T20:14:05.946Z,49.87
2017-03-14T20:15:06.733Z,48.30
2017-03-14T20:16:06.723Z,43.40
2017-03-14T20:17:06.789Z,44.40
2017-03-14T20:18:07.310Z,45.87
2017-03-14T20:19:09.640Z,45.93
2017-03-14T20:20:09.659Z,43.37
2017-03-14T20:21:09.639Z,48.60
2017-03-14T20:22:09.633Z,51.20
2017-03-14T20:23:09.614Z,46.42
2017-03-14T20:24:09.579Z,45.65
2017-03-14T20:25:09.570Z,46.65
2017-03-14T20:26:09.631Z,50.50
2017-03-14T20:27:09.735Z,43.75
2017-03-14T20:28:09.775Z,47.65
2017-03-14T20:29:09.797Z,37.73
2017-03-14T20:30:09.840Z,44.70
2017-03-14T20:31:09.846Z,46.15
2017-03-14T20:32:13.412Z,41.78
2017-03-14T20:33:13.449Z,43.70
2017-03-14T20:34:13.406Z,42.02
2017-03-14T20:35:13.398Z,43.32
2017-03-14T20:36:13.819Z,44.07
2017-03-14T20:37:13.808Z,39.90
2017-03-14T20:38:13.791Z,40.27
2017-03-14T20:39:13.741Z,44.18
2017-03-14T20:40:13.764Z,43.80
2017-03-14T20:41:14.539Z,41.73
2017-03-14T20:42:14.548Z,54.75
2017-03-14T20:43:14.625Z,46.12
2017-03-14T20:44:15.358Z,40.48
2017-03-14T20:45:15.367Z,42.75
2017-03-14T20:46:15.384Z,43.35
2017-03-14T20:47:16.375Z,46.80
2017-03-14T20:48:16.619Z,39.95
2017-03-14T20:49:17.763Z,45.15
2017-03-14T20:50:17.771Z,42.05
2017-03-14T20:51:17.820Z,40.13
2017-03-14T20:52:17.888Z,38.55
2017-03-14T20:53:17.897Z,42.53
2017-03-14T20:54:17.891Z,45.23
2017-03-14T20:55:17.871Z,44.22
2017-03-14T20:56:17.982Z,45.25
2017-03-14T20:57:17.958Z,47.13
2017-03-14T20:58:17.914Z,44.50
2017-03-14T20:59:17.884Z,43.33
2017-03-14T21:00:18.090Z,42.05
2017-03-14T21:01:18.175Z,41.48
2017-03-14T21:02:18.177Z,47.95
2017-03-14T21:03:18.152Z,42.60
2017-03-14T21:04:18.279Z,42.83
2017-03-14T21:05:18.328Z,49.62
2017-03-14T21:06:18.282Z,51.37
2017-03-14T21:07:18.264Z,51.85
2017-03-14T21:08:19.039Z,47.23
2017-03-14T21:09:19.089Z,48.62
2017-03-14T21:10:19.105Z,52.20
2017-03-14T21:11:21.591Z,47.03
2017-03-14T21:12:22.346Z,52.87
2017-03-14T21:13:22.302Z,48.63
2017-03-14T21:14:22.284Z,60.07
2017-03-14T21:15:23.334Z,45.92
2017-03-14T21:16:24.113Z,50.27
2017-03-14T21:17:24.121Z,44.43
2017-03-14T21:18:24.087Z,48.42
2017-03-14T21:19:24.093Z,46.92
2017-03-14T21:20:24.086Z,47.32
2017-03-14T21:21:24.839Z,44.90
2017-03-14T21:22:24.783Z,46.12
2017-03-14T21:23:24.733Z,50.95
2017-03-14T21:24:24.728Z,47.93
2017-03-14T21:25:24.704Z,48.25
2017-03-14T21:26:25.185Z,52.63
2017-03-14T21:27:25.201Z,44.77
2017-03-14T21:28:25.151Z,50.55
2017-03-14T21:29:25.149Z,43.20
2017-03-14T21:30:25.111Z,48.60
2017-03-14T21:31:25.297Z,46.70
2017-03-14T21:32:25.306Z,45.13
2017-03-14T21:33:25.808Z,52.23
2017-03-14T21:34:25.834Z,50.17
2017-03-14T21:35:26.588Z,50.03
2017-03-14T21:36:26.538Z,46.52
2017-03-14T21:37:26.514Z,45.52
2017-03-14T21:38:26.482Z,47.50
2017-03-14T21:39:26.453Z,52.67
2017-03-14T21:40:26.650Z,49.10
2017-03-14T21:41:27.055Z,40.95
2017-03-14T21:42:27.020Z,49.92
2017-03-14T21:43:26.991Z,46.55
2017-03-14T21:44:27.027Z,43.58
2017-03-14T21:45:27.046Z,40.67
2017-03-14T21:46:28.045Z,44.70
2017-03-14T21:47:28.006Z,39.22
2017-03-14T21:48:28.752Z,44.93
2017-03-14T21:49:28.819Z,47.58
2017-03-14T21:50:28.799Z,43.03
2017-03-14T21:51:28.762Z,42.37
2017-03-14T21:52:28.730Z,45.80
2017-03-14T21:53:28.704Z,40.40
2017-03-14T21:54:28.716Z,42.53
2017-03-14T21:55:28.711Z,44.33
2017-03-14T21:56:29.435Z,48.95
2017-03-14T21:57:29.394Z,48.02
2017-03-14T21:58:29.352Z,45.65
2017-03-14T21:59:30.053Z,45.83
2017-03-14T22:00:30.162Z,47.60
2017-03-14T22:01:30.153Z,46.62
2017-03-14T22:02:30.154Z,47.15
2017-03-14T22:03:30.158Z,44.05
2017-03-14T22:04:30.130Z,44.13
2017-03-14T22:05:30.167Z,46.38
2017-03-14T22:06:30.107Z,45.28
2017-03-14T22:07:30.082Z,45.75
2017-03-14T22:08:30.567Z,49.48
2017-03-14T22:09:30.650Z,50.17
2017-03-14T22:10:30.650Z,48.87
2017-03-14T22:11:30.653Z,50.18
2017-03-14T22:12:31.412Z,47.82
2017-03-14T22:13:31.390Z,42.60
2017-03-14T22:14:32.103Z,45.30
2017-03-14T22:15:32.155Z,49.92
2017-03-14T22:16:32.109Z,47.37
2017-03-14T22:17:32.138Z,46.42
2017-03-14T22:18:33.430Z,47.75
2017-03-14T22:19:33.387Z,43.43
2017-03-14T22:20:33.456Z,53.92
2017-03-14T22:21:34.149Z,44.00
2017-03-14T22:22:34.146Z,48.32
2017-03-14T22:23:34.206Z,49.25
2017-03-14T22:24:34.182Z,49.28
2017-03-14T22:25:34.179Z,45.78
2017-03-14T22:26:34.095Z,48.30
2017-03-14T22:27:34.846Z,49.05
2017-03-14T22:28:35.582Z,52.13
2017-03-14T22:29:35.522Z,53.88
2017-03-14T22:30:36.043Z,56.35
2017-03-14T22:31:36.864Z,52.33
2017-03-14T22:32:36.807Z,50.97
2017-03-14T22:33:36.792Z,49.77
2017-03-14T22:34:36.822Z,53.48
2017-03-14T22:35:36.841Z,52.37
2017-03-14T22:36:36.834Z,48.22
2017-03-14T22:37:36.827Z,47.15
2017-03-14T22:38:37.033Z,52.17
2017-03-14T22:39:36.967Z,54.62
2017-03-14T22:40:36.998Z,55.35
2017-03-14T22:41:37.019Z,46.20
2017-03-14T22:42:37.107Z,51.68
2017-03-14T22:43:37.263Z,52.87
2017-03-14T22:44:37.226Z,48.55
2017-03-14T22:45:37.167Z,51.62
2017-03-14T22:46:38.908Z,48.82
2017-03-14T22:47:38.893Z,52.08
2017-03-14T22:48:38.862Z,48.07
2017-03-14T22:49:38.842Z,55.02
2017-03-14T22:50:38.783Z,55.65
2017-03-14T22:51:38.766Z,50.33
2017-03-14T22:52:38.739Z,54.45
2017-03-14T22:53:41.578Z,56.62
2017-03-14T22:54:41.556Z,53.23
2017-03-14T22:55:41.537Z,54.00
2017-03-14T22:56:41.540Z,51.62
2017-03-14T22:57:41.516Z,50.00
2017-03-14T22:58:41.491Z,54.93
2017-03-14T22:59:41.475Z,54.80
2017-03-14T23:00:41.495Z,51.53
2017-03-14T23:01:41.466Z,58.15
2017-03-14T23:02:41.446Z,48.92
2017-03-14T23:03:44.305Z,52.33
2017-03-14T23:04:44.825Z,52.17
2017-03-14T23:05:44.767Z,51.08
2017-03-14T23:06:46.859Z,51.90
2017-03-14T23:07:46.818Z,51.63
2017-03-14T23:08:48.010Z,56.98
2017-03-14T23:09:47.951Z,53.23
2017-03-14T23:10:47.974Z,51.40
2017-03-14T23:11:47.922Z,58.57
2017-03-14T23:12:49.131Z,57.05
2017-03-14T23:13:49.151Z,52.33
2017-03-14T23:14:49.151Z,50.97
2017-03-14T23:15:49.143Z,52.27
2017-03-14T23:16:49.147Z,52.53
2017-03-14T23:17:49.318Z,52.78
2017-03-14T23:18:49.325Z,48.53
2017-03-14T23:19:49.299Z,54.18
2017-03-14T23:20:49.623Z,51.28
2017-03-14T23:21:50.350Z,54.58
2017-03-14T23:22:50.473Z,53.52
2017-03-14T23:23:50.418Z,56.92
2017-03-14T23:24:55.399Z,51.93
2017-03-14T23:25:57.671Z,54.75
2017-03-14T23:26:58.509Z,52.78
2017-03-14T23:27:58.463Z,54.85
2017-03-14T23:28:58.665Z,59.18
2017-03-14T23:29:58.620Z,54.32
2017-03-14T23:30:59.360Z,54.88
2017-03-14T23:32:00.051Z,56.82
2017-03-14T23:33:00.006Z,56.72
2017-03-14T23:34:00.213Z,52.52
2017-03-14T23:34:59.401Z,52.93
2017-03-14T23:35:59.384Z,50.23
2017-03-14T23:37:00.495Z,55.87
2017-03-14T23:38:00.570Z,53.10
2017-03-14T23:39:01.063Z,50.03
2017-03-14T23:40:01.054Z,48.63
2017-03-14T23:41:01.810Z,52.48
2017-03-14T23:42:02.054Z,58.65
2017-03-14T23:43:02.634Z,60.35
2017-03-14T23:44:02.718Z,59.85
2017-03-14T23:45:03.643Z,55.13
2017-03-14T23:46:03.700Z,54.07
2017-03-14T23:47:03.679Z,53.90
2017-03-14T23:48:03.664Z,63.20
2017-03-14T23:49:03.679Z,52.83
2017-03-14T23:50:03.680Z,57.22
2017-03-14T23:51:03.631Z,56.40
2017-03-14T23:52:03.624Z,58.88
2017-03-14T23:53:04.342Z,60.42
2017-03-14T23:54:04.713Z,63.68
2017-03-14T23:55:04.700Z,55.68
2017-03-14T23:56:04.723Z,57.72
2017-03-14T23:57:05.064Z,60.78
2017-03-14T23:58:05.198Z,63.05
2017-03-14T23:59:05.927Z,61.47
